createdAt,value
2023-01-21T00:03:02.377Z,11.90
2023-01-21T00:07:06.232Z,11.90
2023-01-21T00:10:43.693Z,8.90
2023-01-21T00:14:12.705Z,12.70
2023-01-21T00:17:36.484Z,11.40
2023-01-21T00:21:20.727Z,14.00
2023-01-21T00:25:13.496Z,9.80
2023-01-21T00:29:05.812Z,10.80
2023-01-21T00:32:39.206Z,12.70
2023-01-21T00:36:50.108Z,13.80
2023-01-21T00:40:36.058Z,13.90
2023-01-21T00:44:39.703Z,9.30
2023-01-21T00:47:55.613Z,7.90
2023-01-21T00:51:39.220Z,10.50
2023-01-21T00:54:58.565Z,7.90
2023-01-21T00:58:10.922Z,10.50
2023-01-21T01:01:17.423Z,8.90
2023-01-21T01:04:31.786Z,9.30
2023-01-21T01:08:18.389Z,10.40
2023-01-21T01:11:52.506Z,9.20
2023-01-21T01:15:49.149Z,9.70
2023-01-21T01:23:21.125Z,7.70
2023-01-21T01:27:23.331Z,9.60
2023-01-21T01:31:19.546Z,7.10
2023-01-21T01:34:54.722Z,9.30
2023-01-21T01:38:07.902Z,10.10
2023-01-21T01:41:51.737Z,10.90
2023-01-21T01:45:16.341Z,10.70
2023-01-21T01:48:58.462Z,9.70
2023-01-21T01:53:02.056Z,10.80
2023-01-21T01:56:22.329Z,10.30
2023-01-21T02:00:15.650Z,11.10
2023-01-21T02:03:49.542Z,10.40
2023-01-21T02:07:24.628Z,9.50
2023-01-21T02:11:08.077Z,8.30
2023-01-21T02:14:44.528Z,9.30
2023-01-21T02:18:59.059Z,10.30
2023-01-21T02:22:31.022Z,13.30
2023-01-21T02:26:19.580Z,9.80
2023-01-21T02:30:16.550Z,8.40
2023-01-21T02:34:03.464Z,7.00
2023-01-21T02:37:29.583Z,7.80
2023-01-21T02:41:30.817Z,12.10
2023-01-21T02:45:49.393Z,7.70
2023-01-21T02:49:55.426Z,7.70
2023-01-21T02:53:33.898Z,7.80
2023-01-21T02:56:37.477Z,7.90
2023-01-21T03:00:15.756Z,9.70
2023-01-21T03:03:52.120Z,8.90
2023-01-21T03:07:20.247Z,8.50
2023-01-21T03:11:14.375Z,9.50
2023-01-21T03:14:43.059Z,7.60
2023-01-21T03:18:15.213Z,9.30
2023-01-21T03:21:44.089Z,7.30
2023-01-21T03:25:06.082Z,8.10
2023-01-21T03:28:37.651Z,9.60
2023-01-21T03:31:49.030Z,9.80
2023-01-21T03:35:35.783Z,8.10
2023-01-21T03:39:05.789Z,6.80
2023-01-21T03:42:47.462Z,8.60
2023-01-21T03:46:59.156Z,8.80
2023-01-21T03:51:04.790Z,9.40
2023-01-21T03:54:54.111Z,8.40
2023-01-21T03:58:40.174Z,6.80
2023-01-21T04:01:50.857Z,8.00
2023-01-21T04:05:54.462Z,7.20
2023-01-21T04:09:07.839Z,7.90
2023-01-21T04:12:24.521Z,6.90
2023-01-21T04:15:35.695Z,9.30
2023-01-21T04:18:54.353Z,7.40
2023-01-21T04:22:30.377Z,10.60
2023-01-21T04:26:13.212Z,6.80
2023-01-21T04:29:47.522Z,7.50
2023-01-21T04:32:53.239Z,8.20
2023-01-21T04:36:13.463Z,8.10
2023-01-21T04:39:19.543Z,9.50
2023-01-21T04:42:27.808Z,10.10
2023-01-21T04:45:54.146Z,13.90
2023-01-21T04:49:06.056Z,8.10
2023-01-21T04:52:58.952Z,11.60
2023-01-21T04:57:02.514Z,9.50
2023-01-21T05:00:57.288Z,8.30
2023-01-21T05:04:53.387Z,11.20
2023-01-21T05:07:59.295Z,10.40
2023-01-21T05:11:04.517Z,13.60
2023-01-21T05:14:15.144Z,8.50
2023-01-21T05:17:48.832Z,8.70
2023-01-21T05:20:55.910Z,11.00
2023-01-21T05:24:03.862Z,11.50
2023-01-21T05:27:06.969Z,13.10
2023-01-21T05:30:10.869Z,10.00
2023-01-21T05:33:43.999Z,10.20
2023-01-21T05:36:52.707Z,12.00
2023-01-21T05:40:26.437Z,11.70
2023-01-21T05:43:33.377Z,9.80
2023-01-21T05:46:39.237Z,11.90
2023-01-21T05:50:25.936Z,8.90
2023-01-21T05:53:28.993Z,12.20
2023-01-21T05:56:52.190Z,13.30
2023-01-21T06:00:11.323Z,9.70
2023-01-21T06:04:13.872Z,11.40
2023-01-21T06:08:17.435Z,12.00
2023-01-21T06:12:07.014Z,11.50
2023-01-21T06:16:10.717Z,13.30
2023-01-21T06:20:08.280Z,8.80
2023-01-21T06:24:10.412Z,7.90
2023-01-21T06:27:38.607Z,8.00
2023-01-21T06:31:00.048Z,7.40
2023-01-21T06:34:35.015Z,9.50
2023-01-21T06:38:02.217Z,8.10
2023-01-21T06:41:21.329Z,14.40
2023-01-21T06:45:06.647Z,10.00
2023-01-21T06:48:42.891Z,11.10
2023-01-21T06:52:09.118Z,9.90
2023-01-21T06:55:38.285Z,8.70
2023-01-21T06:59:41.721Z,7.50
2023-01-21T07:03:16.323Z,13.30
2023-01-21T07:06:49.499Z,7.40
2023-01-21T07:10:53.158Z,7.00
2023-01-21T07:14:41.941Z,9.70
2023-01-21T07:18:01.279Z,8.50
2023-01-21T07:25:03.819Z,9.50
2023-01-21T07:29:05.966Z,7.40
2023-01-21T07:32:23.885Z,12.80
2023-01-21T07:36:10.431Z,17.70
2023-01-21T07:39:59.162Z,14.90
2023-01-21T07:44:03.138Z,14.20
2023-01-21T07:47:50.150Z,12.70
2023-01-21T07:52:21.426Z,11.40
2023-01-21T07:55:45.416Z,8.10
2023-01-21T07:59:26.699Z,7.30
2023-01-21T08:03:09.027Z,8.40
2023-01-21T08:07:13.167Z,6.80
2023-01-21T08:10:59.973Z,7.30
2023-01-21T08:14:54.157Z,7.50
2023-01-21T08:18:43.242Z,9.30
2023-01-21T08:22:10.887Z,11.50
2023-01-21T08:25:43.148Z,7.30
2023-01-21T08:29:29.439Z,5.90
2023-01-21T08:33:18.726Z,6.30
2023-01-21T08:37:11.392Z,8.00
2023-01-21T08:41:16.765Z,8.30
2023-01-21T08:44:46.574Z,7.10
2023-01-21T08:48:22.362Z,7.20
2023-01-21T08:52:24.973Z,9.70
2023-01-21T08:55:35.531Z,8.60
2023-01-21T08:59:30.895Z,7.40
2023-01-21T09:03:22.233Z,7.00
2023-01-21T09:06:55.799Z,7.10
2023-01-21T09:10:19.617Z,9.10
2023-01-21T09:14:27.319Z,8.40
2023-01-21T09:17:43.977Z,8.70
2023-01-21T09:21:40.544Z,7.80
2023-01-21T09:25:38.627Z,7.40
2023-01-21T09:29:36.241Z,7.00
2023-01-21T09:33:39.983Z,6.30
2023-01-21T09:36:48.523Z,6.50
2023-01-21T09:39:53.700Z,8.40
2023-01-21T09:43:48.667Z,7.20
2023-01-21T09:47:01.912Z,7.20
2023-01-21T09:51:02.119Z,7.00
2023-01-21T09:54:39.826Z,7.70
2023-01-21T09:58:44.413Z,6.50
2023-01-21T10:02:19.835Z,6.30
2023-01-21T10:06:37.321Z,5.50
2023-01-21T10:10:11.672Z,7.60
2023-01-21T10:14:16.471Z,6.00
2023-01-21T10:18:33.853Z,5.80
2023-01-21T10:22:03.101Z,7.10
2023-01-21T10:25:57.391Z,6.70
2023-01-21T10:30:06.594Z,5.60
2023-01-21T10:33:52.388Z,5.20
2023-01-21T10:37:46.197Z,6.90
2023-01-21T10:41:05.018Z,5.90
2023-01-21T10:45:11.695Z,8.20
2023-01-21T10:49:01.057Z,7.90
2023-01-21T10:52:20.803Z,7.20
2023-01-21T10:56:32.229Z,7.10
2023-01-21T11:00:25.441Z,7.80
2023-01-21T11:04:25.014Z,6.60
2023-01-21T11:07:53.837Z,9.70
2023-01-21T11:11:31.862Z,11.20
2023-01-21T11:15:35.898Z,6.80
2023-01-21T11:18:51.119Z,6.00
2023-01-21T11:22:57.752Z,4.80
2023-01-21T11:26:52.722Z,5.60
2023-01-21T11:30:13.029Z,4.10
2023-01-21T11:34:13.642Z,5.00
2023-01-21T11:38:19.526Z,4.20
2023-01-21T11:42:04.865Z,4.40
2023-01-21T11:46:00.507Z,6.30
2023-01-21T11:50:08.258Z,5.40
2023-01-21T11:58:45.582Z,4.50
2023-01-21T12:03:04.325Z,4.60
2023-01-21T12:06:51.693Z,4.90
2023-01-21T12:10:24.379Z,4.40
2023-01-21T12:14:40.086Z,3.50
2023-01-21T12:19:05.869Z,4.80
2023-01-21T12:22:45.709Z,3.10
2023-01-21T12:26:41.596Z,3.80
2023-01-21T12:30:21.830Z,4.00
2023-01-21T12:34:27.597Z,3.40
2023-01-21T12:38:31.325Z,3.60
2023-01-21T12:42:40.494Z,3.40
2023-01-21T12:46:56.520Z,4.60
2023-01-21T12:51:13.714Z,2.80
2023-01-21T12:55:36.608Z,3.70
2023-01-21T12:59:43.230Z,2.70
2023-01-21T13:03:58.675Z,3.30
2023-01-21T13:07:54.270Z,2.50
2023-01-21T13:11:58.445Z,2.70
2023-01-21T13:15:56.823Z,2.00
2023-01-21T13:20:00.455Z,2.20
2023-01-21T13:23:57.629Z,2.00
2023-01-21T13:27:51.644Z,1.70
2023-01-21T13:32:00.788Z,1.90
2023-01-21T13:35:53.482Z,2.20
2023-01-21T13:39:49.326Z,2.30
2023-01-21T13:43:28.228Z,2.10
2023-01-21T13:47:25.798Z,2.30
2023-01-21T13:51:39.418Z,2.20
2023-01-21T13:56:04.496Z,3.50
2023-01-21T14:00:12.381Z,3.10
2023-01-21T14:04:19.165Z,2.10
2023-01-21T14:08:16.800Z,2.10
2023-01-21T14:12:33.046Z,2.50
2023-01-21T14:16:41.176Z,1.60
2023-01-21T14:20:43.963Z,1.60
2023-01-21T14:25:12.009Z,1.60
2023-01-21T14:29:34.155Z,1.90
2023-01-21T14:33:55.725Z,1.50
2023-01-21T14:37:54.510Z,1.40
2023-01-21T14:42:07.750Z,1.40
2023-01-21T14:45:46.509Z,1.60
2023-01-21T14:59:05.383Z,1.90
2023-01-21T15:08:16.006Z,7.20
2023-01-21T15:17:08.568Z,3.00
2023-01-21T15:21:13.902Z,4.30
2023-01-21T15:25:24.143Z,3.40
2023-01-21T15:29:18.600Z,2.60
2023-01-21T15:33:27.457Z,3.70
2023-01-21T15:37:17.127Z,2.40
2023-01-21T15:41:31.794Z,2.90
2023-01-21T15:45:33.971Z,2.20
2023-01-21T15:50:02.901Z,2.40
2023-01-21T15:54:36.699Z,3.20
2023-01-21T15:58:36.394Z,2.20
2023-01-21T16:02:40.451Z,2.40
2023-01-21T16:06:59.548Z,1.70
2023-01-21T16:11:16.430Z,4.80
2023-01-21T16:15:38.399Z,1.80
2023-01-21T16:19:49.940Z,2.30
2023-01-21T16:23:46.723Z,1.20
2023-01-21T16:27:52.798Z,1.40
2023-01-21T16:31:48.377Z,2.50
2023-01-21T16:35:55.591Z,1.20
2023-01-21T16:39:49.560Z,1.20
2023-01-21T16:43:59.413Z,1.10
2023-01-21T16:48:06.800Z,1.40
2023-01-21T16:52:14.869Z,1.30
2023-01-21T16:56:17.858Z,6.20
2023-01-21T17:00:21.708Z,1.80
2023-01-21T17:04:25.378Z,2.40
2023-01-21T17:08:00.864Z,2.90
2023-01-21T17:11:41.085Z,2.40
2023-01-21T17:15:37.689Z,2.40
2023-01-21T17:19:39.532Z,1.60
2023-01-21T17:27:03.236Z,2.30
2023-01-21T17:30:48.953Z,2.90
2023-01-21T17:34:45.464Z,1.90
2023-01-21T17:38:50.812Z,2.00
2023-01-21T17:42:43.296Z,2.60
2023-01-21T17:46:46.816Z,2.20
2023-01-21T17:50:50.740Z,2.00
2023-01-21T17:55:00.095Z,2.50
2023-01-21T17:59:03.438Z,2.20
2023-01-21T18:02:57.340Z,3.40
2023-01-21T18:07:00.570Z,2.70
2023-01-21T18:10:57.894Z,2.20
2023-01-21T18:14:47.187Z,3.30
2023-01-21T18:18:56.903Z,1.90
2023-01-21T18:23:03.367Z,2.70
2023-01-21T18:27:00.656Z,3.20
2023-01-21T18:31:08.256Z,2.90
2023-01-21T18:34:50.958Z,2.40
2023-01-21T18:38:47.155Z,2.30
2023-01-21T18:42:24.928Z,2.40
2023-01-21T18:46:27.186Z,3.00
2023-01-21T18:50:24.559Z,2.00
2023-01-21T18:57:49.081Z,2.20
2023-01-21T19:02:00.461Z,2.60
2023-01-21T19:05:34.221Z,2.30
2023-01-21T19:09:25.321Z,1.80
2023-01-21T19:15:59.773Z,1.80
2023-01-21T19:20:07.386Z,2.20
2023-01-21T19:23:40.139Z,2.10
2023-01-21T19:27:36.510Z,2.00
2023-01-21T19:31:40.231Z,3.60
2023-01-21T19:35:45.174Z,1.60
2023-01-21T19:39:34.243Z,1.80
2023-01-21T19:43:02.948Z,1.80
2023-01-21T19:47:00.783Z,6.10
2023-01-21T19:50:24.404Z,2.40
2023-01-21T19:54:28.015Z,2.90
2023-01-21T19:58:13.220Z,2.20
2023-01-21T20:02:16.900Z,2.70
2023-01-21T20:05:34.022Z,3.80
2023-01-21T20:09:30.396Z,2.80
2023-01-21T20:13:33.721Z,2.50
2023-01-21T20:17:33.182Z,6.30
2023-01-21T20:21:40.220Z,3.50
2023-01-21T20:25:43.635Z,4.70
2023-01-21T20:29:49.573Z,2.80
2023-01-21T20:33:59.396Z,4.90
2023-01-21T20:37:59.165Z,2.80
2023-01-21T20:42:02.746Z,2.50
2023-01-21T20:46:15.334Z,2.80
2023-01-21T20:49:47.465Z,4.30
2023-01-21T20:53:51.389Z,2.20
2023-01-21T20:57:43.088Z,2.30
2023-01-21T21:01:48.071Z,2.40
2023-01-21T21:05:44.971Z,3.20
2023-01-21T21:09:40.255Z,2.30
2023-01-21T21:13:37.782Z,3.50
2023-01-21T21:17:41.365Z,2.70
2023-01-21T21:21:17.906Z,3.30
2023-01-21T21:25:11.620Z,2.60
2023-01-21T21:28:44.851Z,2.20
2023-01-21T21:32:33.617Z,2.80
2023-01-21T21:36:34.335Z,3.30
2023-01-21T21:40:21.833Z,2.40
2023-01-21T21:44:15.310Z,2.50
2023-01-21T21:48:10.599Z,2.40
2023-01-21T21:52:13.455Z,3.00
2023-01-21T21:56:03.919Z,2.70
2023-01-21T21:59:57.159Z,3.60
2023-01-21T22:03:41.433Z,2.60
2023-01-21T22:07:43.945Z,3.40
2023-01-21T22:11:40.954Z,2.60
2023-01-21T22:15:37.575Z,2.70
2023-01-21T22:19:23.552Z,2.70
2023-01-21T22:23:06.397Z,2.90
2023-01-21T22:27:09.369Z,2.60
2023-01-21T22:30:47.599Z,2.90
2023-01-21T22:34:18.663Z,2.30
2023-01-21T22:38:14.869Z,3.50
2023-01-21T22:42:10.362Z,2.80
2023-01-21T22:46:14.143Z,2.20
2023-01-21T22:50:18.335Z,2.30
2023-01-21T22:54:06.300Z,3.00
2023-01-21T22:58:10.502Z,2.10
2023-01-21T23:02:08.282Z,2.30
2023-01-21T23:05:57.479Z,2.50
2023-01-21T23:09:43.730Z,3.10
2023-01-21T23:13:21.250Z,2.50
2023-01-21T23:17:17.748Z,2.10
2023-01-21T23:21:11.346Z,2.40
2023-01-21T23:25:00.065Z,2.10
2023-01-21T23:28:53.403Z,3.20
2023-01-21T23:32:56.047Z,2.20
2023-01-21T23:36:50.480Z,2.30
2023-01-21T23:40:36.378Z,2.50
2023-01-21T23:44:17.851Z,2.00
2023-01-21T23:48:21.479Z,2.00
2023-01-21T23:51:56.533Z,3.60
2023-01-21T23:56:11.460Z,3.20
